sensor_id;sensor_type;location;lat;lon;timestamp;pressure;altitude;pressure_sealevel;temperature;humidity
6449;BME280;3257;52.298;13.690;2022-07-24T00:01:05;77168.94;;;-144.77;73.44
6449;BME280;3257;52.298;13.690;2022-07-24T00:03:31;77166.97;;;-144.77;73.77
6449;BME280;3257;52.298;13.690;2022-07-24T00:05:59;77166.97;;;-144.77;74.11
6449;BME280;3257;52.298;13.690;2022-07-24T00:08:27;77172.94;;;-144.77;74.96
6449;BME280;3257;52.298;13.690;2022-07-24T00:10:53;77170.94;;;-144.77;74.66
6449;BME280;3257;52.298;13.690;2022-07-24T00:13:20;77170.94;;;-144.77;74.92
6449;BME280;3257;52.298;13.690;2022-07-24T00:15:46;77159.00;;;-144.77;74.58
6449;BME280;3257;52.298;13.690;2022-07-24T00:18:13;77163.00;;;-144.77;75.00
6449;BME280;3257;52.298;13.690;2022-07-24T00:20:40;77182.88;;;-144.77;75.64
6449;BME280;3257;52.298;13.690;2022-07-24T00:23:06;77172.94;;;-144.77;74.96
6449;BME280;3257;52.298;13.690;2022-07-24T00:25:33;77178.88;;;-144.77;75.48
6449;BME280;3257;52.298;13.690;2022-07-24T00:27:59;77190.81;;;-144.77;75.88
6449;BME280;3257;52.298;13.690;2022-07-24T00:30:31;77198.75;;;-144.77;75.81
6449;BME280;3257;52.298;13.690;2022-07-24T00:32:57;77206.72;;;-144.77;76.18
6449;BME280;3257;52.298;13.690;2022-07-24T00:35:24;77222.63;;;-144.77;76.07
6449;BME280;3257;52.298;13.690;2022-07-24T00:37:50;77234.53;;;-144.77;76.40
6449;BME280;3257;52.298;13.690;2022-07-24T00:40:17;77258.38;;;-144.77;76.60
6449;BME280;3257;52.298;13.690;2022-07-24T00:42:44;77258.38;;;-144.77;76.72
6449;BME280;3257;52.298;13.690;2022-07-24T00:45:10;77252.44;;;-144.77;76.28
6449;BME280;3257;52.298;13.690;2022-07-24T00:47:51;77260.38;;;-144.77;76.46
6449;BME280;3257;52.298;13.690;2022-07-24T00:50:23;77270.31;;;-144.77;76.65
6449;BME280;3257;52.298;13.690;2022-07-24T00:52:49;77262.38;;;-144.77;76.07
6449;BME280;3257;52.298;13.690;2022-07-24T00:55:16;77270.31;;;-144.77;76.09
6449;BME280;3257;52.298;13.690;2022-07-24T00:57:43;77276.28;;;-144.77;76.34
6449;BME280;3257;52.298;13.690;2022-07-24T01:00:12;77278.25;;;-144.77;76.70
6449;BME280;3257;52.298;13.690;2022-07-24T01:02:40;77298.13;;;-144.77;76.86
6449;BME280;3257;52.298;13.690;2022-07-24T01:05:11;77306.09;;;-144.77;77.34
6449;BME280;3257;52.298;13.690;2022-07-24T01:07:38;77308.09;;;-144.77;77.14
6449;BME280;3257;52.298;13.690;2022-07-24T01:10:05;77306.09;;;-144.77;77.37
6449;BME280;3257;52.298;13.690;2022-07-24T01:12:33;77312.06;;;-144.77;77.23
6449;BME280;3257;52.298;13.690;2022-07-24T01:15:00;77300.13;;;-144.77;76.93
6449;BME280;3257;52.298;13.690;2022-07-24T01:17:36;77286.22;;;-144.77;76.64
6449;BME280;3257;52.298;13.690;2022-07-24T01:20:04;77284.22;;;-144.77;76.36
6449;BME280;3257;52.298;13.690;2022-07-24T01:22:31;77308.09;;;-144.77;76.94
6449;BME280;3257;52.298;13.690;2022-07-24T01:24:58;77318.03;;;-144.77;77.72
6449;BME280;3257;52.298;13.690;2022-07-24T01:27:25;77333.91;;;-144.77;77.71
6449;BME280;3257;52.298;13.690;2022-07-24T01:29:52;77347.84;;;-144.77;78.27
6449;BME280;3257;52.298;13.690;2022-07-24T01:32:18;77349.81;;;-144.77;78.11
6449;BME280;3257;52.298;13.690;2022-07-24T01:34:45;77353.78;;;-144.77;78.10
6449;BME280;3257;52.298;13.690;2022-07-24T01:37:12;77353.78;;;-144.77;78.16
6449;BME280;3257;52.298;13.690;2022-07-24T01:39:38;77337.91;;;-144.77;77.99
6449;BME280;3257;52.298;13.690;2022-07-24T01:42:05;77339.88;;;-144.77;77.94
6449;BME280;3257;52.298;13.690;2022-07-24T01:44:32;77355.78;;;-144.77;78.66
6449;BME280;3257;52.298;13.690;2022-07-24T01:46:58;77369.69;;;-144.77;79.37
6449;BME280;3257;52.298;13.690;2022-07-24T01:49:25;77385.59;;;-144.77;79.95
6449;BME280;3257;52.298;13.690;2022-07-24T01:51:51;77387.59;;;-144.77;79.49
6449;BME280;3257;52.298;13.690;2022-07-24T01:54:18;77389.56;;;-144.77;79.56
6449;BME280;3257;52.298;13.690;2022-07-24T01:56:44;77389.56;;;-144.77;79.46
6449;BME280;3257;52.298;13.690;2022-07-24T01:59:11;77393.56;;;-144.77;79.87
6449;BME280;3257;52.298;13.690;2022-07-24T02:01:39;77397.53;;;-144.77;79.99
6449;BME280;3257;52.298;13.690;2022-07-24T02:04:05;77397.53;;;-144.77;80.19
6449;BME280;3257;52.298;13.690;2022-07-24T02:06:32;77413.44;;;-144.77;80.90
6449;BME280;3257;52.298;13.690;2022-07-24T02:08:59;77419.38;;;-144.77;80.94
6449;BME280;3257;52.298;13.690;2022-07-24T02:11:26;77425.34;;;-144.77;81.29
6449;BME280;3257;52.298;13.690;2022-07-24T02:13:52;77427.34;;;-144.77;81.27
6449;BME280;3257;52.298;13.690;2022-07-24T02:16:21;77427.34;;;-144.77;81.49
6449;BME280;3257;52.298;13.690;2022-07-24T02:18:48;77437.28;;;-144.77;81.98
6449;BME280;3257;52.298;13.690;2022-07-24T02:21:15;77441.25;;;-144.77;82.07
6449;BME280;3257;52.298;13.690;2022-07-24T02:23:41;77429.31;;;-144.77;81.76
6449;BME280;3257;52.298;13.690;2022-07-24T02:26:08;77429.31;;;-144.77;81.47
6449;BME280;3257;52.298;13.690;2022-07-24T02:28:35;77425.34;;;-144.77;81.74
6449;BME280;3257;52.298;13.690;2022-07-24T02:31:01;77423.38;;;-144.77;81.79
6449;BME280;3257;52.298;13.690;2022-07-24T02:33:28;77407.47;;;-144.77;81.31
6449;BME280;3257;52.298;13.690;2022-07-24T02:35:54;77421.38;;;-144.77;81.62
6449;BME280;3257;52.298;13.690;2022-07-24T02:38:21;77423.38;;;-144.77;81.67
6449;BME280;3257;52.298;13.690;2022-07-24T02:40:48;77431.31;;;-144.77;81.65
6449;BME280;3257;52.298;13.690;2022-07-24T02:43:14;77437.28;;;-144.77;81.82
6449;BME280;3257;52.298;13.690;2022-07-24T02:45:41;77445.22;;;-144.77;82.02
6449;BME280;3257;52.298;13.690;2022-07-24T02:48:07;77439.25;;;-144.77;82.37
6449;BME280;3257;52.298;13.690;2022-07-24T02:50:34;77441.25;;;-144.77;82.51
6449;BME280;3257;52.298;13.690;2022-07-24T02:53:01;77439.25;;;-144.77;83.07
6449;BME280;3257;52.298;13.690;2022-07-24T02:55:28;77443.25;;;-144.77;83.60
6449;BME280;3257;52.298;13.690;2022-07-24T02:57:55;77445.22;;;-144.77;83.91
6449;BME280;3257;52.298;13.690;2022-07-24T03:00:23;77437.28;;;-144.77;83.89
6449;BME280;3257;52.298;13.690;2022-07-24T03:02:50;77437.28;;;-144.77;84.04
6449;BME280;3257;52.298;13.690;2022-07-24T03:05:17;77449.19;;;-144.77;84.45
6449;BME280;3257;52.298;13.690;2022-07-24T03:07:43;77459.13;;;-144.77;84.94
6449;BME280;3257;52.298;13.690;2022-07-24T03:10:11;77467.09;;;-144.77;85.25
6449;BME280;3257;52.298;13.690;2022-07-24T03:12:39;77469.09;;;-144.77;85.74
6449;BME280;3257;52.298;13.690;2022-07-24T03:15:07;77475.03;;;-144.77;85.65
6449;BME280;3257;52.298;13.690;2022-07-24T03:17:34;77473.06;;;-144.77;85.53
6449;BME280;3257;52.298;13.690;2022-07-24T03:20:01;77473.06;;;-144.77;85.73
6449;BME280;3257;52.298;13.690;2022-07-24T03:22:27;77465.09;;;-144.77;85.62
6449;BME280;3257;52.298;13.690;2022-07-24T03:24:54;77461.13;;;-144.77;85.41
6449;BME280;3257;52.298;13.690;2022-07-24T03:27:20;77465.09;;;-144.77;85.42
6449;BME280;3257;52.298;13.690;2022-07-24T03:29:47;77451.19;;;-144.77;84.92
6449;BME280;3257;52.298;13.690;2022-07-24T03:32:14;77453.19;;;-144.77;84.82
6449;BME280;3257;52.298;13.690;2022-07-24T03:34:40;77447.22;;;-144.77;84.32
6449;BME280;3257;52.298;13.690;2022-07-24T03:37:07;77439.25;;;-144.77;84.22
6449;BME280;3257;52.298;13.690;2022-07-24T03:39:33;77461.13;;;-144.77;84.43
6449;BME280;3257;52.298;13.690;2022-07-24T03:42:00;77481.00;;;-144.77;84.84
6449;BME280;3257;52.298;13.690;2022-07-24T03:44:26;77494.91;;;-144.77;85.68
6449;BME280;3257;52.298;13.690;2022-07-24T03:46:53;77506.84;;;-144.77;85.72
6449;BME280;3257;52.298;13.690;2022-07-24T03:49:19;77494.91;;;-144.77;85.55
6449;BME280;3257;52.298;13.690;2022-07-24T03:51:46;77490.94;;;-144.77;85.23
6449;BME280;3257;52.298;13.690;2022-07-24T03:54:13;77483.00;;;-144.77;85.25
6449;BME280;3257;52.298;13.690;2022-07-24T03:56:40;77488.97;;;-144.77;85.52
6449;BME280;3257;52.298;13.690;2022-07-24T03:59:06;77498.91;;;-144.77;85.19
6449;BME280;3257;52.298;13.690;2022-07-24T04:01:33;77486.97;;;-144.77;85.62
6449;BME280;3257;52.298;13.690;2022-07-24T04:04:00;77488.97;;;-144.77;85.77
6449;BME280;3257;52.298;13.690;2022-07-24T04:06:32;77481.00;;;-144.77;85.82
6449;BME280;3257;52.298;13.690;2022-07-24T04:08:59;77475.03;;;-144.77;86.11
6449;BME280;3257;52.298;13.690;2022-07-24T04:11:26;77479.03;;;-144.77;86.16
6449;BME280;3257;52.298;13.690;2022-07-24T04:13:53;77477.03;;;-144.77;86.51
6449;BME280;3257;52.298;13.690;2022-07-24T04:16:20;77455.16;;;-144.77;86.31
6449;BME280;3257;52.298;13.690;2022-07-24T04:18:47;77457.16;;;-144.77;86.23
6449;BME280;3257;52.298;13.690;2022-07-24T04:21:14;77455.16;;;-144.77;86.19
6449;BME280;3257;52.298;13.690;2022-07-24T04:23:40;77447.22;;;-144.77;85.20
6449;BME280;3257;52.298;13.690;2022-07-24T04:26:07;77431.31;;;-144.77;84.78
6449;BME280;3257;52.298;13.690;2022-07-24T04:28:34;77427.34;;;-144.77;84.41
6449;BME280;3257;52.298;13.690;2022-07-24T04:31:01;77431.31;;;-144.77;84.38
6449;BME280;3257;52.298;13.690;2022-07-24T04:33:28;77419.38;;;-144.77;83.78
6449;BME280;3257;52.298;13.690;2022-07-24T04:35:55;77409.44;;;-144.77;83.88
6449;BME280;3257;52.298;13.690;2022-07-24T04:38:21;77409.44;;;-144.77;83.29
6449;BME280;3257;52.298;13.690;2022-07-24T04:40:48;77397.53;;;-144.77;83.26
6449;BME280;3257;52.298;13.690;2022-07-24T04:43:16;77389.56;;;-144.77;82.57
6449;BME280;3257;52.298;13.690;2022-07-24T04:45:43;77385.59;;;-144.77;81.75
6449;BME280;3257;52.298;13.690;2022-07-24T04:48:09;77377.66;;;-144.77;81.39
6449;BME280;3257;52.298;13.690;2022-07-24T04:50:36;77359.75;;;-144.77;81.54
6449;BME280;3257;52.298;13.690;2022-07-24T04:53:02;77347.84;;;-144.77;80.90
6449;BME280;3257;52.298;13.690;2022-07-24T04:55:29;77341.88;;;-144.77;80.35
6449;BME280;3257;52.298;13.690;2022-07-24T04:57:56;77341.88;;;-144.77;81.16
6449;BME280;3257;52.298;13.690;2022-07-24T05:00:23;77325.97;;;-144.77;81.39
6449;BME280;3257;52.298;13.690;2022-07-24T05:02:49;77329.94;;;-144.77;81.47
6449;BME280;3257;52.298;13.690;2022-07-24T05:05:16;77316.03;;;-144.77;81.27
6449;BME280;3257;52.298;13.690;2022-07-24T05:07:43;77314.03;;;-144.77;81.43
6449;BME280;3257;52.298;13.690;2022-07-24T05:10:09;77308.09;;;-144.77;81.47
6449;BME280;3257;52.298;13.690;2022-07-24T05:12:36;77290.19;;;-144.77;79.41
6449;BME280;3257;52.298;13.690;2022-07-24T05:15:04;77278.25;;;-144.77;78.52
6449;BME280;3257;52.298;13.690;2022-07-24T05:17:31;77266.34;;;-144.77;78.33
6449;BME280;3257;52.298;13.690;2022-07-24T05:19:58;77252.44;;;-144.77;78.30
6449;BME280;3257;52.298;13.690;2022-07-24T05:22:24;77236.53;;;-144.77;78.27
6449;BME280;3257;52.298;13.690;2022-07-24T05:24:51;77236.53;;;-144.77;79.06
6449;BME280;3257;52.298;13.690;2022-07-24T05:27:17;77230.56;;;-144.77;79.41
6449;BME280;3257;52.298;13.690;2022-07-24T05:29:45;77226.59;;;-144.77;78.90
6449;BME280;3257;52.298;13.690;2022-07-24T05:32:13;77202.75;;;-144.77;77.66
6449;BME280;3257;52.298;13.690;2022-07-24T05:34:39;77190.81;;;-144.77;78.19
6449;BME280;3257;52.298;13.690;2022-07-24T05:37:09;77178.88;;;-144.77;77.09
6449;BME280;3257;52.298;13.690;2022-07-24T05:39:36;77180.88;;;-144.77;75.99
6449;BME280;3257;52.298;13.690;2022-07-24T05:42:03;77155.03;;;-144.77;76.54
6449;BME280;3257;52.298;13.690;2022-07-24T05:44:30;77141.13;;;-144.77;76.44
6449;BME280;3257;52.298;13.690;2022-07-24T05:46:57;77129.19;;;-144.77;75.46
6449;BME280;3257;52.298;13.690;2022-07-24T05:49:24;77113.31;;;-144.77;74.03
6449;BME280;3257;52.298;13.690;2022-07-24T05:51:52;77107.34;;;-144.77;73.75
6449;BME280;3257;52.298;13.690;2022-07-24T05:54:18;77081.50;;;-144.77;74.77
6449;BME280;3257;52.298;13.690;2022-07-24T05:56:45;77067.59;;;-144.77;73.77
6449;BME280;3257;52.298;13.690;2022-07-24T05:59:12;77061.63;;;-144.77;73.85
6449;BME280;3257;52.298;13.690;2022-07-24T06:01:38;77047.72;;;-144.77;72.43
6449;BME280;3257;52.298;13.690;2022-07-24T06:04:05;77041.75;;;-144.77;72.42
6449;BME280;3257;52.298;13.690;2022-07-24T06:06:32;77031.81;;;-144.77;71.96
6449;BME280;3257;52.298;13.690;2022-07-24T06:08:58;77017.91;;;-144.77;72.34
6449;BME280;3257;52.298;13.690;2022-07-24T06:11:25;77015.91;;;-144.77;72.85
6449;BME280;3257;52.298;13.690;2022-07-24T06:13:52;77002.00;;;-144.77;69.69
6449;BME280;3257;52.298;13.690;2022-07-24T06:16:19;76984.13;;;-144.77;69.22
6449;BME280;3257;52.298;13.690;2022-07-24T06:18:46;76968.22;;;-144.77;69.59
6449;BME280;3257;52.298;13.690;2022-07-24T06:21:12;76960.25;;;-144.77;69.84
6449;BME280;3257;52.298;13.690;2022-07-24T06:23:39;76956.28;;;-144.77;68.80
6449;BME280;3257;52.298;13.690;2022-07-24T06:26:05;76936.41;;;-144.77;69.21
6449;BME280;3257;52.298;13.690;2022-07-24T06:28:32;76938.41;;;-144.77;69.28
6449;BME280;3257;52.298;13.690;2022-07-24T06:30:59;76926.47;;;-144.77;67.98
6449;BME280;3257;52.298;13.690;2022-07-24T06:33:26;76908.59;;;-144.77;66.09
6449;BME280;3257;52.298;13.690;2022-07-24T06:35:52;76900.66;;;-144.77;66.12
6449;BME280;3257;52.298;13.690;2022-07-24T06:38:19;76888.72;;;-144.77;66.30
6449;BME280;3257;52.298;13.690;2022-07-24T06:40:46;76876.78;;;-144.77;65.17
6449;BME280;3257;52.298;13.690;2022-07-24T06:43:12;76858.91;;;-144.77;65.23
6449;BME280;3257;52.298;13.690;2022-07-24T06:45:39;76864.88;;;-144.77;64.12
6449;BME280;3257;52.298;13.690;2022-07-24T06:48:06;76833.06;;;-144.77;66.31
6449;BME280;3257;52.298;13.690;2022-07-24T06:50:33;76827.13;;;-144.77;65.14
6449;BME280;3257;52.298;13.690;2022-07-24T06:53:00;76825.13;;;-144.77;62.62
6449;BME280;3257;52.298;13.690;2022-07-24T06:55:26;76805.25;;;-144.77;63.04
6449;BME280;3257;52.298;13.690;2022-07-24T06:57:53;76789.34;;;-144.77;63.56
6449;BME280;3257;52.298;13.690;2022-07-24T07:00:19;76797.31;;;-144.77;61.35
6449;BME280;3257;52.298;13.690;2022-07-24T07:02:46;76781.41;;;-144.77;62.11
6449;BME280;3257;52.298;13.690;2022-07-24T07:05:13;76765.50;;;-144.77;60.62
6449;BME280;3257;52.298;13.690;2022-07-24T07:07:39;76755.56;;;-144.77;61.49
6449;BME280;3257;52.298;13.690;2022-07-24T07:10:07;76741.66;;;-144.77;60.48
6449;BME280;3257;52.298;13.690;2022-07-24T07:12:34;76735.69;;;-144.77;60.46
6449;BME280;3257;52.298;13.690;2022-07-24T07:15:06;76731.72;;;-144.77;59.86
6449;BME280;3257;52.298;13.690;2022-07-24T07:17:32;76723.78;;;-144.77;58.94
6449;BME280;3257;52.298;13.690;2022-07-24T07:19:59;76703.91;;;-144.77;58.36
6449;BME280;3257;52.298;13.690;2022-07-24T07:22:26;76691.97;;;-144.77;56.32
6449;BME280;3257;52.298;13.690;2022-07-24T07:24:52;76684.03;;;-144.77;56.37
6449;BME280;3257;52.298;13.690;2022-07-24T07:27:20;76678.06;;;-144.77;57.09
6449;BME280;3257;52.298;13.690;2022-07-24T07:29:46;76660.19;;;-144.77;56.90
6449;BME280;3257;52.298;13.690;2022-07-24T07:32:13;76652.22;;;-144.77;55.50
6449;BME280;3257;52.298;13.690;2022-07-24T07:34:39;76634.34;;;-144.77;55.13
6449;BME280;3257;52.298;13.690;2022-07-24T07:37:06;76632.34;;;-144.77;52.74
6449;BME280;3257;52.298;13.690;2022-07-24T07:39:33;76634.34;;;-144.77;53.86
6449;BME280;3257;52.298;13.690;2022-07-24T07:42:00;76628.38;;;-144.77;52.64
6449;BME280;3257;52.298;13.690;2022-07-24T07:44:27;76620.44;;;-144.77;52.75
6449;BME280;3257;52.298;13.690;2022-07-24T07:46:53;76612.50;;;-144.77;51.79
6449;BME280;3257;52.298;13.690;2022-07-24T07:49:20;76620.44;;;-144.77;52.82
6449;BME280;3257;52.298;13.690;2022-07-24T07:51:46;76618.44;;;-144.77;51.93
6449;BME280;3257;52.298;13.690;2022-07-24T07:54:14;76598.56;;;-144.77;52.57
6449;BME280;3257;52.298;13.690;2022-07-24T07:56:41;76570.75;;;-144.77;52.92
6449;BME280;3257;52.298;13.690;2022-07-24T07:59:08;76562.81;;;-144.77;51.29
6449;BME280;3257;52.298;13.690;2022-07-24T08:01:35;76556.84;;;-144.77;49.72
6449;BME280;3257;52.298;13.690;2022-07-24T08:04:03;76550.88;;;-144.77;50.23
6449;BME280;3257;52.298;13.690;2022-07-24T08:06:29;76560.81;;;-144.77;50.11
6449;BME280;3257;52.298;13.690;2022-07-24T08:08:56;76542.94;;;-144.77;49.81
6449;BME280;3257;52.298;13.690;2022-07-24T08:11:24;76538.97;;;-144.77;49.12
6449;BME280;3257;52.298;13.690;2022-07-24T08:13:53;76542.94;;;-144.77;48.04
6449;BME280;3257;52.298;13.690;2022-07-24T08:16:20;76519.09;;;-144.77;48.06
6449;BME280;3257;52.298;13.690;2022-07-24T08:18:46;76527.03;;;-144.77;48.07
6449;BME280;3257;52.298;13.690;2022-07-24T08:21:17;76503.19;;;-144.77;48.45
6449;BME280;3257;52.298;13.690;2022-07-24T08:23:45;76497.22;;;-144.77;46.92
6449;BME280;3257;52.298;13.690;2022-07-24T08:26:12;76477.38;;;-144.77;46.83
6449;BME280;3257;52.298;13.690;2022-07-24T08:28:39;76443.59;;;-144.77;49.38
6449;BME280;3257;52.298;13.690;2022-07-24T08:31:05;76427.69;;;-144.77;49.46
6449;BME280;3257;52.298;13.690;2022-07-24T08:33:32;76397.88;;;-144.77;49.74
6449;BME280;3257;52.298;13.690;2022-07-24T08:35:59;76385.97;;;-144.77;48.44
6449;BME280;3257;52.298;13.690;2022-07-24T08:38:27;76395.91;;;-144.77;47.92
6449;BME280;3257;52.298;13.690;2022-07-24T08:40:54;76370.06;;;-144.77;48.49
6449;BME280;3257;52.298;13.690;2022-07-24T08:43:20;76368.06;;;-144.77;47.04
6449;BME280;3257;52.298;13.690;2022-07-24T08:45:49;76328.34;;;-144.77;47.64
6449;BME280;3257;52.298;13.690;2022-07-24T08:48:16;76324.34;;;-144.77;45.28
6449;BME280;3257;52.298;13.690;2022-07-24T08:50:46;76312.44;;;-144.77;45.38
6449;BME280;3257;52.298;13.690;2022-07-24T08:53:14;76298.53;;;-144.77;46.58
6449;BME280;3257;52.298;13.690;2022-07-24T08:55:41;76266.72;;;-144.77;46.54
6449;BME280;3257;52.298;13.690;2022-07-24T08:58:08;76252.81;;;-144.77;45.43
6449;BME280;3257;52.298;13.690;2022-07-24T09:00:34;76248.84;;;-144.77;44.89
6449;BME280;3257;52.298;13.690;2022-07-24T09:03:03;76244.88;;;-144.77;44.80
6449;BME280;3257;52.298;13.690;2022-07-24T09:05:30;76258.78;;;-144.77;44.04
6449;BME280;3257;52.298;13.690;2022-07-24T09:08:09;76234.94;;;-144.77;45.75
6449;BME280;3257;52.298;13.690;2022-07-24T09:10:37;76221.03;;;-144.77;44.39
6449;BME280;3257;52.298;13.690;2022-07-24T09:13:15;76213.09;;;-144.77;43.92
6449;BME280;3257;52.298;13.690;2022-07-24T09:15:48;76185.25;;;-144.77;45.20
6449;BME280;3257;52.298;13.690;2022-07-24T09:18:26;76169.38;;;-144.77;43.36
6449;BME280;3257;52.298;13.690;2022-07-24T09:20:55;76161.44;;;-144.77;43.01
6449;BME280;3257;52.298;13.690;2022-07-24T09:23:25;76141.56;;;-144.77;42.80
6449;BME280;3257;52.298;13.690;2022-07-24T09:25:53;76135.59;;;-144.77;42.36
6449;BME280;3257;52.298;13.690;2022-07-24T09:28:21;76125.66;;;-144.77;42.92
6449;BME280;3257;52.298;13.690;2022-07-24T09:30:48;76127.66;;;-144.77;42.20
6449;BME280;3257;52.298;13.690;2022-07-24T09:33:18;76185.25;;;-144.77;41.46
6449;BME280;3257;52.298;13.690;2022-07-24T09:35:52;76161.44;;;-144.77;41.14
6449;BME280;3257;52.298;13.690;2022-07-24T09:38:24;76143.53;;;-144.77;41.90
6449;BME280;3257;52.298;13.690;2022-07-24T09:40:53;76117.72;;;-144.77;43.69
6449;BME280;3257;52.298;13.690;2022-07-24T09:43:27;76091.88;;;-144.77;43.49
6449;BME280;3257;52.298;13.690;2022-07-24T09:48:32;76038.22;;;-144.77;41.28
6449;BME280;3257;52.298;13.690;2022-07-24T09:51:02;76024.31;;;-144.77;40.11
6449;BME280;3257;52.298;13.690;2022-07-24T09:53:31;76022.34;;;-144.77;40.75
6449;BME280;3257;52.298;13.690;2022-07-24T09:56:08;76006.44;;;-144.77;40.11
6449;BME280;3257;52.298;13.690;2022-07-24T09:58:38;76046.19;;;-144.77;39.08
6449;BME280;3257;52.298;13.690;2022-07-24T10:01:08;76028.31;;;-144.77;39.43
6449;BME280;3257;52.298;13.690;2022-07-24T10:03:41;76014.41;;;-144.77;40.31
6449;BME280;3257;52.298;13.690;2022-07-24T10:06:10;76050.16;;;-144.77;37.85
6449;BME280;3257;52.298;13.690;2022-07-24T10:08:39;76008.44;;;-144.77;38.56
6449;BME280;3257;52.298;13.690;2022-07-24T10:11:07;75978.63;;;-144.77;38.28
6449;BME280;3257;52.298;13.690;2022-07-24T10:13:34;75962.75;;;-144.77;37.84
6449;BME280;3257;52.298;13.690;2022-07-24T10:21:23;75932.94;;;-144.77;37.62
6449;BME280;3257;52.298;13.690;2022-07-24T10:26:36;75899.16;;;-144.77;36.48
6449;BME280;3257;52.298;13.690;2022-07-24T10:29:08;75877.31;;;-144.77;37.54
6449;BME280;3257;52.298;13.690;2022-07-24T10:31:57;75859.41;;;-144.77;37.36
6449;BME280;3257;52.298;13.690;2022-07-24T10:34:47;75855.44;;;-144.77;37.21
6449;BME280;3257;52.298;13.690;2022-07-24T10:37:28;75835.59;;;-144.77;37.11
6449;BME280;3257;52.298;13.690;2022-07-24T10:40:08;75823.66;;;-144.77;36.07
6449;BME280;3257;52.298;13.690;2022-07-24T10:45:33;75817.69;;;-144.77;35.63
6449;BME280;3257;52.298;13.690;2022-07-24T10:59:11;75762.06;;;-144.77;35.92
6449;BME280;3257;52.298;13.690;2022-07-24T11:01:43;75744.19;;;-144.77;35.12
6449;BME280;3257;52.298;13.690;2022-07-24T11:07:08;75740.22;;;-144.77;37.46
6449;BME280;3257;52.298;13.690;2022-07-24T11:12:32;75746.19;;;-144.77;35.77
6449;BME280;3257;52.298;13.690;2022-07-24T11:15:06;75730.28;;;-144.77;36.02
6449;BME280;3257;52.298;13.690;2022-07-24T11:17:51;75712.41;;;-144.77;37.39
6449;BME280;3257;52.298;13.690;2022-07-24T11:20:20;75710.41;;;-144.77;35.61
6449;BME280;3257;52.298;13.690;2022-07-24T11:22:49;75680.63;;;-144.77;36.29
6449;BME280;3257;52.298;13.690;2022-07-24T11:25:24;75674.66;;;-144.77;34.95
6449;BME280;3257;52.298;13.690;2022-07-24T11:30:25;75660.75;;;-144.77;34.49
6449;BME280;3257;52.298;13.690;2022-07-24T11:32:52;75670.69;;;-144.77;33.73
6449;BME280;3257;52.298;13.690;2022-07-24T11:35:35;75710.41;;;-144.77;34.59
6449;BME280;3257;52.298;13.690;2022-07-24T11:38:03;75724.31;;;-144.77;34.54
6449;BME280;3257;52.298;13.690;2022-07-24T11:40:31;75712.41;;;-144.77;35.19
6449;BME280;3257;52.298;13.690;2022-07-24T11:43:02;75684.59;;;-144.77;34.95
6449;BME280;3257;52.298;13.690;2022-07-24T11:45:36;75676.66;;;-144.77;34.34
6449;BME280;3257;52.298;13.690;2022-07-24T11:48:03;75682.59;;;-144.77;33.59
6449;BME280;3257;52.298;13.690;2022-07-24T11:50:29;75698.50;;;-144.77;33.83
6449;BME280;3257;52.298;13.690;2022-07-24T11:52:57;75680.63;;;-144.77;35.39
6449;BME280;3257;52.298;13.690;2022-07-24T11:55:24;75660.75;;;-144.77;34.56
6449;BME280;3257;52.298;13.690;2022-07-24T11:57:53;75628.97;;;-144.77;34.37
6449;BME280;3257;52.298;13.690;2022-07-24T12:00:40;75609.09;;;-144.77;33.17
6449;BME280;3257;52.298;13.690;2022-07-24T12:03:07;75603.13;;;-144.77;34.21
6449;BME280;3257;52.298;13.690;2022-07-24T12:05:37;75571.34;;;-144.77;33.48
6449;BME280;3257;52.298;13.690;2022-07-24T12:08:22;75545.53;;;-144.77;33.77
6449;BME280;3257;52.298;13.690;2022-07-24T12:10:57;75527.66;;;-144.77;33.47
6449;BME280;3257;52.298;13.690;2022-07-24T12:13:25;75509.78;;;-144.77;33.66
6449;BME280;3257;52.298;13.690;2022-07-24T12:15:51;75537.59;;;-144.77;32.33
6449;BME280;3257;52.298;13.690;2022-07-24T12:18:18;75519.69;;;-144.77;32.51
6449;BME280;3257;52.298;13.690;2022-07-24T12:20:58;75517.72;;;-144.77;32.82
6449;BME280;3257;52.298;13.690;2022-07-24T12:23:25;75505.78;;;-144.77;32.37
6449;BME280;3257;52.298;13.690;2022-07-24T12:25:52;75491.88;;;-144.77;32.37
6449;BME280;3257;52.298;13.690;2022-07-24T12:28:19;75485.94;;;-144.77;31.65
6449;BME280;3257;52.298;13.690;2022-07-24T12:30:50;75501.81;;;-144.77;31.63
6449;BME280;3257;52.298;13.690;2022-07-24T12:35:57;75523.69;;;-144.77;31.16
6449;BME280;3257;52.298;13.690;2022-07-24T12:38:36;75493.88;;;-144.77;32.64
6449;BME280;3257;52.298;13.690;2022-07-24T12:41:11;75499.84;;;-144.77;32.86
6449;BME280;3257;52.298;13.690;2022-07-24T12:46:20;75462.09;;;-144.77;32.66
6449;BME280;3257;52.298;13.690;2022-07-24T12:51:24;75529.63;;;-144.77;30.59
6449;BME280;3257;52.298;13.690;2022-07-24T12:53:55;75515.72;;;-144.77;31.71
6449;BME280;3257;52.298;13.690;2022-07-24T12:56:22;75509.78;;;-144.77;31.27
6449;BME280;3257;52.298;13.690;2022-07-24T12:58:59;75525.66;;;-144.77;31.43
6449;BME280;3257;52.298;13.690;2022-07-24T13:01:48;75485.94;;;-144.77;31.44
6449;BME280;3257;52.298;13.690;2022-07-24T13:04:17;75485.94;;;-144.77;32.12
6449;BME280;3257;52.298;13.690;2022-07-24T13:06:50;75438.25;;;-144.77;32.59
6449;BME280;3257;52.298;13.690;2022-07-24T13:09:17;75412.44;;;-144.77;31.36
6449;BME280;3257;52.298;13.690;2022-07-24T13:11:46;75438.25;;;-144.77;31.34
6449;BME280;3257;52.298;13.690;2022-07-24T13:14:14;75418.38;;;-144.77;31.84
6449;BME280;3257;52.298;13.690;2022-07-24T13:16:44;75406.47;;;-144.77;32.44
6449;BME280;3257;52.298;13.690;2022-07-24T13:19:11;75406.47;;;-144.77;31.74
6449;BME280;3257;52.298;13.690;2022-07-24T13:21:39;75408.47;;;-144.77;30.79
6449;BME280;3257;52.298;13.690;2022-07-24T13:24:07;75410.44;;;-144.77;31.49
6449;BME280;3257;52.298;13.690;2022-07-24T13:26:36;75392.56;;;-144.77;31.07
6449;BME280;3257;52.298;13.690;2022-07-24T13:29:04;75366.75;;;-144.77;31.14
6449;BME280;3257;52.298;13.690;2022-07-24T13:31:31;75342.91;;;-144.77;31.50
6449;BME280;3257;52.298;13.690;2022-07-24T13:33:58;75360.78;;;-144.77;30.22
6449;BME280;3257;52.298;13.690;2022-07-24T13:36:25;75358.78;;;-144.77;30.24